CMP173 KMIA-MPTO
Flight info
| Callsign | CMP173 |
|---|---|
| Flight time | 2h 30m |
| Altitude | 35000 |
| Route | MAYNR3 FUNDI UM335 GADIM/N0454F370 UM335 ARNAL DCT SEKMA OSUPA2C |
| Aircraft | B739/M-SDE2E3FGHIRWXY/LB1 |
Departure
| Time | 2026-05-07 23:40 |
|---|---|
| Airport | Miami International Airport (KMIA) |
Arrival
| Time | 2026-05-08 02:10 |
|---|---|
| Airport | Tocumen International Airport (MPTO) |
| Time | Latitude | Longitude | Altitude | Speed | Heading |
|---|---|---|---|---|---|
| 2026-05-07 23:04 | 25.79829 | -80.28165 | 14 ft | 0 kts | 182° |
| 2026-05-07 23:25 | 25.79835 | -80.28165 | 15 ft | 2 kts | 181° |
| 2026-05-07 23:26 | 25.79851 | -80.28164 | 17 ft | 2 kts | 182° |
| 2026-05-07 23:26 | 25.79867 | -80.28163 | 15 ft | 2 kts | 183° |
| 2026-05-07 23:26 | 25.79884 | -80.28162 | 15 ft | 2 kts | 184° |
| 2026-05-07 23:26 | 25.79901 | -80.28160 | 15 ft | 2 kts | 186° |
| 2026-05-07 23:27 | 25.79933 | -80.28155 | 16 ft | 0 kts | 193° |
| 2026-05-07 23:27 | 25.79937 | -80.28154 | 14 ft | 0 kts | 193° |
| 2026-05-07 23:28 | 25.79938 | -80.28154 | 14 ft | 0 kts | 201° |
| 2026-05-07 23:29 | 25.79940 | -80.28154 | 14 ft | 0 kts | 219° |
| 2026-05-07 23:29 | 25.79946 | -80.28145 | 15 ft | 2 kts | 253° |
| 2026-05-07 23:29 | 25.79947 | -80.28143 | 15 ft | 0 kts | 257° |
| 2026-05-07 23:33 | 25.79947 | -80.28148 | 16 ft | 6 kts | 264° |
| 2026-05-07 23:34 | 25.79956 | -80.28225 | 15 ft | 14 kts | 278° |
| 2026-05-07 23:34 | 25.79961 | -80.28261 | 15 ft | 0 kts | 275° |
| 2026-05-07 23:34 | 25.79954 | -80.28331 | 15 ft | 25 kts | 266° |
| 2026-05-07 23:35 | 25.79940 | -80.28618 | 20 ft | 40 kts | 267° |
| 2026-05-07 23:35 | 25.79933 | -80.28817 | 22 ft | 6 kts | 267° |
| 2026-05-07 23:35 | 25.79932 | -80.28822 | 22 ft | 2 kts | 268° |
| 2026-05-07 23:35 | 25.79956 | -80.28900 | 21 ft | 17 kts | 320° |
| 2026-05-07 23:36 | 25.80006 | -80.29048 | 20 ft | 25 kts | 267° |
| 2026-05-07 23:36 | 25.79998 | -80.29234 | 21 ft | 23 kts | 267° |
| 2026-05-07 23:36 | 25.79990 | -80.29407 | 16 ft | 21 kts | 267° |
| 2026-05-07 23:36 | 25.79984 | -80.29567 | 14 ft | 20 kts | 268° |
| 2026-05-07 23:37 | 25.79978 | -80.29720 | 14 ft | 20 kts | 267° |
| 2026-05-07 23:37 | 25.79971 | -80.29870 | 12 ft | 19 kts | 267° |
| 2026-05-07 23:37 | 25.79969 | -80.29987 | 12 ft | 13 kts | 278° |
| 2026-05-07 23:37 | 25.79996 | -80.30080 | 15 ft | 12 kts | 298° |
| 2026-05-07 23:38 | 25.80053 | -80.30099 | 14 ft | 9 kts | 52° |
| 2026-05-07 23:38 | 25.80074 | -80.30040 | 13 ft | 5 kts | 78° |
| 2026-05-07 23:38 | 25.80075 | -80.30037 | 13 ft | 0 kts | 78° |
| 2026-05-07 23:39 | 25.80077 | -80.30014 | 13 ft | 21 kts | 87° |
| 2026-05-07 23:39 | 25.80094 | -80.29570 | 14 ft | 92 kts | 87° |
| 2026-05-07 23:39 | 25.80132 | -80.28643 | 19 ft | 147 kts | 88° |
| 2026-05-07 23:39 | 25.80187 | -80.27348 | 125 ft | 182 kts | 89° |
| 2026-05-07 23:40 | 25.80247 | -80.25995 | 924 ft | 172 kts | 102° |
| 2026-05-07 23:40 | 25.79691 | -80.24820 | 1408 ft | 179 kts | 142° |
| 2026-05-07 23:40 | 25.78677 | -80.23975 | 1972 ft | 184 kts | 143° |
| 2026-05-07 23:40 | 25.77638 | -80.23057 | 2411 ft | 200 kts | 141° |
| 2026-05-07 23:41 | 25.76486 | -80.22000 | 2525 ft | 234 kts | 142° |
| 2026-05-07 23:41 | 25.75143 | -80.20738 | 2703 ft | 263 kts | 139° |
| 2026-05-07 23:41 | 25.73641 | -80.19522 | 3300 ft | 272 kts | 160° |
| 2026-05-07 23:41 | 25.71794 | -80.19098 | 4089 ft | 271 kts | 177° |
| 2026-05-07 23:42 | 25.69899 | -80.19005 | 4772 ft | 278 kts | 180° |
| 2026-05-07 23:42 | 25.67955 | -80.18965 | 5530 ft | 280 kts | 181° |
| 2026-05-07 23:42 | 25.66008 | -80.19127 | 6316 ft | 281 kts | 188° |
| 2026-05-07 23:42 | 25.64063 | -80.19420 | 7032 ft | 284 kts | 188° |
| 2026-05-07 23:43 | 25.62094 | -80.19788 | 7655 ft | 289 kts | 197° |
| 2026-05-07 23:43 | 25.60278 | -80.20759 | 8316 ft | 292 kts | 210° |
| 2026-05-07 23:43 | 25.58507 | -80.21892 | 8952 ft | 296 kts | 210° |
| 2026-05-07 23:43 | 25.56700 | -80.23058 | 9582 ft | 301 kts | 210° |
| 2026-05-07 23:44 | 25.54882 | -80.24227 | 10219 ft | 305 kts | 210° |
| 2026-05-07 23:44 | 25.52993 | -80.25435 | 10482 ft | 323 kts | 210° |
| 2026-05-07 23:44 | 25.51012 | -80.26696 | 10640 ft | 342 kts | 210° |
| 2026-05-07 23:44 | 25.48909 | -80.28030 | 10986 ft | 353 kts | 210° |
| 2026-05-07 23:45 | 25.46762 | -80.29389 | 11520 ft | 357 kts | 210° |
| 2026-05-07 23:45 | 25.44580 | -80.30767 | 11969 ft | 364 kts | 210° |
| 2026-05-07 23:45 | 25.42374 | -80.32159 | 12593 ft | 365 kts | 210° |
| 2026-05-07 23:45 | 25.40157 | -80.33557 | 13151 ft | 369 kts | 210° |
| 2026-05-07 23:46 | 25.37910 | -80.34973 | 13656 ft | 373 kts | 210° |
| 2026-05-07 23:46 | 25.35653 | -80.36394 | 14231 ft | 374 kts | 210° |
| 2026-05-07 23:46 | 25.33379 | -80.37826 | 14709 ft | 377 kts | 211° |
| 2026-05-07 23:46 | 25.31096 | -80.39263 | 15238 ft | 379 kts | 211° |
| 2026-05-07 23:47 | 25.28802 | -80.40706 | 15766 ft | 379 kts | 211° |
| 2026-05-07 23:47 | 25.26499 | -80.42155 | 15969 ft | 382 kts | 211° |
| 2026-05-07 23:47 | 25.24190 | -80.43604 | 15992 ft | 382 kts | 210° |
| 2026-05-07 23:47 | 25.21744 | -80.44793 | 16132 ft | 388 kts | 199° |
| 2026-05-07 23:48 | 25.19159 | -80.45645 | 16698 ft | 388 kts | 197° |
| 2026-05-07 23:48 | 25.17435 | -80.46176 | 17067 ft | 389 kts | 197° |
| 2026-05-07 23:48 | 25.14812 | -80.46977 | 17552 ft | 391 kts | 197° |
| 2026-05-07 23:48 | 25.11321 | -80.48065 | 18145 ft | 396 kts | 197° |
| 2026-05-07 23:49 | 25.08660 | -80.48913 | 18547 ft | 399 kts | 198° |
| 2026-05-07 23:49 | 25.06855 | -80.49496 | 18829 ft | 400 kts | 198° |
| 2026-05-07 23:49 | 25.04177 | -80.50367 | 19252 ft | 402 kts | 198° |
| 2026-05-07 23:49 | 25.01490 | -80.51245 | 19679 ft | 403 kts | 198° |
| 2026-05-07 23:50 | 24.98831 | -80.52114 | 20076 ft | 405 kts | 198° |
| 2026-05-07 23:50 | 24.96120 | -80.53001 | 20466 ft | 407 kts | 199° |
| 2026-05-07 23:50 | 24.93393 | -80.53892 | 20858 ft | 409 kts | 199° |
| 2026-05-07 23:50 | 24.90658 | -80.54784 | 21253 ft | 411 kts | 199° |
| 2026-05-07 23:51 | 24.87910 | -80.55681 | 21631 ft | 413 kts | 199° |
| 2026-05-07 23:51 | 24.85144 | -80.56584 | 22001 ft | 415 kts | 200° |
| 2026-05-07 23:51 | 24.82559 | -80.57932 | 22318 ft | 411 kts | 218° |
| 2026-05-07 23:51 | 24.80494 | -80.60055 | 22697 ft | 405 kts | 235° |
| 2026-05-07 23:52 | 24.78927 | -80.62622 | 23110 ft | 404 kts | 240° |
| 2026-05-07 23:52 | 24.77431 | -80.65252 | 23443 ft | 406 kts | 240° |
| 2026-05-07 23:52 | 24.75944 | -80.67897 | 23744 ft | 408 kts | 240° |
| 2026-05-07 23:52 | 24.74440 | -80.70553 | 24033 ft | 409 kts | 240° |
| 2026-05-07 23:53 | 24.72924 | -80.73206 | 24299 ft | 411 kts | 240° |
| 2026-05-07 23:53 | 24.71389 | -80.75867 | 24577 ft | 413 kts | 240° |
| 2026-05-07 23:53 | 24.69841 | -80.78537 | 24848 ft | 415 kts | 240° |
| 2026-05-07 23:53 | 24.68286 | -80.81211 | 25128 ft | 416 kts | 240° |
| 2026-05-07 23:54 | 24.66723 | -80.83895 | 25404 ft | 418 kts | 240° |
| 2026-05-07 23:54 | 24.65154 | -80.86589 | 25679 ft | 419 kts | 240° |
| 2026-05-07 23:54 | 24.63575 | -80.89300 | 25943 ft | 421 kts | 240° |
| 2026-05-07 23:54 | 24.61995 | -80.92012 | 26207 ft | 423 kts | 240° |
| 2026-05-07 23:55 | 24.60405 | -80.94738 | 26479 ft | 424 kts | 240° |
| 2026-05-07 23:55 | 24.58766 | -80.97449 | 26729 ft | 428 kts | 234° |
| 2026-05-07 23:55 | 24.56559 | -80.99689 | 26940 ft | 438 kts | 216° |
| 2026-05-07 23:55 | 24.53804 | -81.01162 | 27210 ft | 446 kts | 201° |
| 2026-05-07 23:56 | 24.50727 | -81.01770 | 27431 ft | 456 kts | 185° |
| 2026-05-07 23:56 | 24.47548 | -81.01791 | 27684 ft | 459 kts | 182° |
| 2026-05-07 23:56 | 24.44341 | -81.01722 | 27892 ft | 462 kts | 182° |
| 2026-05-07 23:56 | 24.41158 | -81.01633 | 28120 ft | 464 kts | 182° |
| 2026-05-07 23:57 | 24.37885 | -81.01553 | 28349 ft | 466 kts | 182° |
| 2026-05-07 23:57 | 24.34678 | -81.01496 | 28580 ft | 467 kts | 182° |
| 2026-05-07 23:57 | 24.31420 | -81.01454 | 28825 ft | 469 kts | 182° |
| 2026-05-07 23:57 | 24.28143 | -81.01424 | 29048 ft | 471 kts | 183° |
| 2026-05-07 23:58 | 24.24863 | -81.01399 | 29268 ft | 473 kts | 183° |
| 2026-05-07 23:58 | 24.21567 | -81.01375 | 29482 ft | 475 kts | 183° |
| 2026-05-07 23:58 | 24.18300 | -81.01350 | 29693 ft | 477 kts | 183° |
| 2026-05-07 23:58 | 24.15060 | -81.01324 | 29897 ft | 478 kts | 182° |
| 2026-05-07 23:59 | 24.11613 | -81.01296 | 30112 ft | 480 kts | 182° |
| 2026-05-07 23:59 | 24.08258 | -81.01269 | 30299 ft | 482 kts | 182° |
| 2026-05-07 23:59 | 24.04906 | -81.01240 | 30563 ft | 481 kts | 182° |
| 2026-05-07 23:59 | 24.01562 | -81.01212 | 30865 ft | 480 kts | 182° |
| 2026-05-08 00:00 | 23.98229 | -81.01171 | 31173 ft | 479 kts | 181° |
| 2026-05-08 00:00 | 23.94902 | -81.01059 | 31439 ft | 479 kts | 181° |
| 2026-05-08 00:00 | 23.91568 | -81.00905 | 31696 ft | 479 kts | 180° |
| 2026-05-08 00:00 | 23.88249 | -81.00739 | 31986 ft | 478 kts | 180° |
| 2026-05-08 00:01 | 23.84915 | -81.00574 | 32278 ft | 478 kts | 180° |
| 2026-05-08 00:01 | 23.81556 | -81.00415 | 32585 ft | 477 kts | 180° |
| 2026-05-08 00:01 | 23.78236 | -81.00265 | 32861 ft | 477 kts | 180° |
| 2026-05-08 00:01 | 23.74917 | -81.00120 | 33129 ft | 477 kts | 180° |
| 2026-05-08 00:02 | 23.71606 | -80.99979 | 33394 ft | 476 kts | 180° |
| 2026-05-08 00:02 | 23.68295 | -80.99838 | 33652 ft | 476 kts | 180° |
| 2026-05-08 00:02 | 23.64987 | -80.99698 | 33918 ft | 475 kts | 180° |
| 2026-05-08 00:02 | 23.61670 | -80.99557 | 34004 ft | 477 kts | 180° |
| 2026-05-08 00:03 | 23.55031 | -80.99274 | 34004 ft | 476 kts | 180° |
| 2026-05-08 00:03 | 23.48467 | -80.98993 | 34005 ft | 474 kts | 180° |
| 2026-05-08 00:04 | 23.41883 | -80.98712 | 33998 ft | 472 kts | 180° |
| 2026-05-08 00:04 | 23.35319 | -80.98433 | 34001 ft | 471 kts | 180° |
| 2026-05-08 00:05 | 23.28767 | -80.98154 | 34006 ft | 471 kts | 180° |
| 2026-05-08 00:05 | 23.22216 | -80.97883 | 34003 ft | 471 kts | 180° |
| 2026-05-08 00:06 | 23.15652 | -80.97621 | 33999 ft | 472 kts | 180° |
| 2026-05-08 00:06 | 23.09071 | -80.97356 | 34001 ft | 473 kts | 180° |
| 2026-05-08 00:07 | 23.02480 | -80.97111 | 34003 ft | 474 kts | 181° |
| 2026-05-08 00:07 | 22.95872 | -80.96868 | 33999 ft | 475 kts | 180° |
| 2026-05-08 00:08 | 22.89255 | -80.96603 | 33998 ft | 476 kts | 180° |
| 2026-05-08 00:08 | 22.82632 | -80.96336 | 33999 ft | 476 kts | 180° |
| 2026-05-08 00:09 | 22.75999 | -80.96072 | 34001 ft | 477 kts | 180° |
| 2026-05-08 00:09 | 22.69367 | -80.95811 | 33998 ft | 476 kts | 180° |
| 2026-05-08 00:10 | 22.62746 | -80.95550 | 34000 ft | 476 kts | 180° |
| 2026-05-08 00:10 | 22.56134 | -80.95290 | 33998 ft | 475 kts | 180° |
| 2026-05-08 00:11 | 22.49538 | -80.95030 | 33996 ft | 474 kts | 180° |
| 2026-05-08 00:11 | 22.42945 | -80.94771 | 33993 ft | 474 kts | 180° |
| 2026-05-08 00:12 | 22.36352 | -80.94513 | 33993 ft | 473 kts | 180° |
| 2026-05-08 00:12 | 22.29778 | -80.94255 | 33998 ft | 473 kts | 180° |
| 2026-05-08 00:13 | 22.23197 | -80.93997 | 33999 ft | 473 kts | 180° |
| 2026-05-08 00:13 | 22.16623 | -80.93740 | 33999 ft | 473 kts | 180° |
| 2026-05-08 00:14 | 22.10048 | -80.93483 | 33999 ft | 473 kts | 180° |
| 2026-05-08 00:14 | 22.03468 | -80.93226 | 34001 ft | 473 kts | 180° |
| 2026-05-08 00:15 | 21.96928 | -80.92971 | 34003 ft | 474 kts | 180° |
| 2026-05-08 00:15 | 21.90343 | -80.92714 | 34003 ft | 474 kts | 180° |
| 2026-05-08 00:16 | 21.83728 | -80.92456 | 34004 ft | 474 kts | 180° |
| 2026-05-08 00:16 | 21.77122 | -80.92199 | 34004 ft | 475 kts | 180° |
| 2026-05-08 00:17 | 21.70515 | -80.91942 | 34007 ft | 475 kts | 180° |
| 2026-05-08 00:17 | 21.63909 | -80.91685 | 34005 ft | 475 kts | 180° |
| 2026-05-08 00:18 | 21.57303 | -80.91429 | 34005 ft | 475 kts | 180° |
| 2026-05-08 00:18 | 21.50681 | -80.91172 | 34004 ft | 475 kts | 179° |
| 2026-05-08 00:19 | 21.44110 | -80.90920 | 34005 ft | 475 kts | 179° |
| 2026-05-08 00:19 | 21.37501 | -80.90668 | 34005 ft | 475 kts | 179° |
| 2026-05-08 00:20 | 21.30886 | -80.90415 | 34007 ft | 475 kts | 179° |
| 2026-05-08 00:20 | 21.24276 | -80.90163 | 34009 ft | 477 kts | 179° |
| 2026-05-08 00:21 | 21.17610 | -80.89909 | 34013 ft | 482 kts | 179° |
| 2026-05-08 00:21 | 21.10859 | -80.89651 | 34015 ft | 487 kts | 179° |
| 2026-05-08 00:22 | 21.04055 | -80.89385 | 34011 ft | 491 kts | 179° |
| 2026-05-08 00:22 | 20.97192 | -80.89082 | 34011 ft | 495 kts | 179° |
| 2026-05-08 00:23 | 20.90293 | -80.88769 | 34010 ft | 497 kts | 179° |
| 2026-05-08 00:23 | 20.83429 | -80.88463 | 34008 ft | 498 kts | 179° |
| 2026-05-08 00:24 | 20.76502 | -80.88157 | 34008 ft | 498 kts | 179° |
| 2026-05-08 00:24 | 20.69558 | -80.87851 | 34006 ft | 499 kts | 179° |
| 2026-05-08 00:25 | 20.62624 | -80.87546 | 34007 ft | 499 kts | 179° |
| 2026-05-08 00:25 | 20.55691 | -80.87241 | 34007 ft | 499 kts | 178° |
| 2026-05-08 00:26 | 20.48750 | -80.86935 | 34009 ft | 499 kts | 178° |
| 2026-05-08 00:26 | 20.41820 | -80.86631 | 34008 ft | 498 kts | 178° |
| 2026-05-08 00:27 | 20.34884 | -80.86327 | 34008 ft | 498 kts | 178° |
| 2026-05-08 00:27 | 20.29124 | -80.86074 | 34008 ft | 498 kts | 178° |
| 2026-05-08 00:28 | 20.21075 | -80.85722 | 34010 ft | 498 kts | 178° |
| 2026-05-08 00:28 | 20.15272 | -80.85468 | 34008 ft | 498 kts | 178° |
| 2026-05-08 00:29 | 20.08346 | -80.85165 | 34011 ft | 498 kts | 178° |
| 2026-05-08 00:29 | 20.01422 | -80.84862 | 34011 ft | 498 kts | 178° |
| 2026-05-08 00:30 | 19.94492 | -80.84545 | 34009 ft | 498 kts | 178° |
| 2026-05-08 00:30 | 19.87565 | -80.84206 | 34009 ft | 498 kts | 178° |
| 2026-05-08 00:31 | 19.80639 | -80.83868 | 34009 ft | 498 kts | 178° |
| 2026-05-08 00:31 | 19.73708 | -80.83534 | 34005 ft | 498 kts | 178° |
| 2026-05-08 00:32 | 19.66776 | -80.83201 | 34005 ft | 498 kts | 178° |
| 2026-05-08 00:32 | 19.59891 | -80.82871 | 34005 ft | 499 kts | 178° |
| 2026-05-08 00:33 | 19.52959 | -80.82538 | 34003 ft | 498 kts | 178° |
| 2026-05-08 00:33 | 19.46027 | -80.82206 | 34002 ft | 498 kts | 178° |
| 2026-05-08 00:34 | 19.39097 | -80.81874 | 34002 ft | 498 kts | 178° |
| 2026-05-08 00:34 | 19.32172 | -80.81543 | 34003 ft | 498 kts | 178° |
| 2026-05-08 00:35 | 19.25240 | -80.81211 | 34000 ft | 498 kts | 178° |
| 2026-05-08 00:35 | 19.18324 | -80.80883 | 33997 ft | 498 kts | 178° |
| 2026-05-08 00:36 | 19.11394 | -80.80554 | 34000 ft | 497 kts | 178° |
| 2026-05-08 00:36 | 19.04484 | -80.80226 | 34002 ft | 497 kts | 178° |
| 2026-05-08 00:37 | 18.97572 | -80.79899 | 34002 ft | 497 kts | 178° |
| 2026-05-08 00:38 | 18.87211 | -80.79408 | 34003 ft | 496 kts | 178° |
| 2026-05-08 00:38 | 18.80364 | -80.79084 | 34000 ft | 496 kts | 178° |
| 2026-05-08 00:39 | 18.73471 | -80.78758 | 33998 ft | 495 kts | 178° |
| 2026-05-08 00:39 | 18.66582 | -80.78433 | 34000 ft | 495 kts | 178° |
| 2026-05-08 00:40 | 18.59695 | -80.78108 | 33996 ft | 494 kts | 178° |
| 2026-05-08 00:40 | 18.52828 | -80.77784 | 33999 ft | 494 kts | 178° |
| 2026-05-08 00:41 | 18.45955 | -80.77460 | 33997 ft | 494 kts | 178° |
| 2026-05-08 00:41 | 18.39082 | -80.77137 | 33993 ft | 494 kts | 178° |
| 2026-05-08 00:42 | 18.32218 | -80.76814 | 33992 ft | 494 kts | 178° |
| 2026-05-08 00:42 | 18.25344 | -80.76491 | 33996 ft | 494 kts | 178° |
| 2026-05-08 00:43 | 18.18488 | -80.76169 | 33994 ft | 494 kts | 178° |
| 2026-05-08 00:43 | 18.11671 | -80.75849 | 33992 ft | 493 kts | 178° |
| 2026-05-08 00:44 | 18.04808 | -80.75527 | 33990 ft | 493 kts | 178° |
| 2026-05-08 00:44 | 17.97952 | -80.75206 | 33986 ft | 493 kts | 178° |
| 2026-05-08 00:45 | 17.91087 | -80.74884 | 33989 ft | 493 kts | 178° |
| 2026-05-08 00:45 | 17.84227 | -80.74563 | 33991 ft | 493 kts | 178° |
| 2026-05-08 00:46 | 17.77366 | -80.74243 | 33994 ft | 493 kts | 178° |
| 2026-05-08 00:46 | 17.70505 | -80.73922 | 33988 ft | 494 kts | 178° |
| 2026-05-08 00:47 | 17.63634 | -80.73602 | 33984 ft | 494 kts | 178° |
| 2026-05-08 00:47 | 17.56768 | -80.73280 | 33988 ft | 494 kts | 178° |
| 2026-05-08 00:48 | 17.49900 | -80.72958 | 33987 ft | 494 kts | 178° |
| 2026-05-08 00:48 | 17.43045 | -80.72473 | 33983 ft | 494 kts | 174° |
| 2026-05-08 00:49 | 17.36231 | -80.71554 | 33989 ft | 494 kts | 172° |
| 2026-05-08 00:49 | 17.29416 | -80.70572 | 33987 ft | 494 kts | 172° |
| 2026-05-08 00:50 | 17.22647 | -80.69648 | 33984 ft | 494 kts | 173° |
| 2026-05-08 00:50 | 17.15813 | -80.68754 | 33986 ft | 494 kts | 173° |
| 2026-05-08 00:51 | 17.08988 | -80.67874 | 33984 ft | 494 kts | 173° |
| 2026-05-08 00:51 | 17.02169 | -80.66994 | 33981 ft | 494 kts | 173° |
| 2026-05-08 00:52 | 16.95345 | -80.66112 | 33977 ft | 494 kts | 173° |
| 2026-05-08 00:52 | 16.88518 | -80.65230 | 33981 ft | 494 kts | 173° |
| 2026-05-08 00:53 | 16.81695 | -80.64348 | 33980 ft | 494 kts | 173° |
| 2026-05-08 00:53 | 16.74880 | -80.63467 | 33982 ft | 493 kts | 173° |
| 2026-05-08 00:54 | 16.68065 | -80.62588 | 33978 ft | 493 kts | 173° |
| 2026-05-08 00:54 | 16.61293 | -80.61715 | 33980 ft | 492 kts | 173° |
| 2026-05-08 00:55 | 16.54494 | -80.60839 | 33972 ft | 492 kts | 173° |
| 2026-05-08 00:55 | 16.47692 | -80.59963 | 33971 ft | 492 kts | 173° |
| 2026-05-08 00:56 | 16.40897 | -80.59088 | 33971 ft | 492 kts | 173° |
| 2026-05-08 00:56 | 16.34092 | -80.58213 | 33973 ft | 492 kts | 173° |
| 2026-05-08 00:57 | 16.27338 | -80.57345 | 33972 ft | 492 kts | 173° |
| 2026-05-08 00:57 | 16.20537 | -80.56472 | 33972 ft | 492 kts | 173° |
| 2026-05-08 00:58 | 16.13744 | -80.55600 | 33975 ft | 492 kts | 172° |
| 2026-05-08 00:58 | 16.06943 | -80.54728 | 33972 ft | 492 kts | 172° |
| 2026-05-08 00:59 | 16.00154 | -80.53858 | 33972 ft | 492 kts | 172° |
| 2026-05-08 00:59 | 15.93357 | -80.52988 | 33966 ft | 492 kts | 172° |
| 2026-05-08 01:00 | 15.86557 | -80.52118 | 33965 ft | 492 kts | 172° |
| 2026-05-08 01:00 | 15.79791 | -80.51253 | 33965 ft | 492 kts | 172° |
| 2026-05-08 01:01 | 15.72940 | -80.50377 | 33965 ft | 492 kts | 172° |
| 2026-05-08 01:01 | 15.66186 | -80.49515 | 33967 ft | 492 kts | 172° |
| 2026-05-08 01:02 | 15.59379 | -80.48645 | 33966 ft | 492 kts | 172° |
| 2026-05-08 01:02 | 15.52581 | -80.47779 | 33961 ft | 492 kts | 172° |
| 2026-05-08 01:03 | 15.45771 | -80.46911 | 33969 ft | 492 kts | 172° |
| 2026-05-08 01:03 | 15.38965 | -80.46044 | 33964 ft | 493 kts | 172° |
| 2026-05-08 01:04 | 15.32158 | -80.45177 | 33962 ft | 492 kts | 172° |
| 2026-05-08 01:04 | 15.25363 | -80.44313 | 33960 ft | 492 kts | 172° |
| 2026-05-08 01:05 | 15.18560 | -80.43449 | 33960 ft | 492 kts | 172° |
| 2026-05-08 01:05 | 15.11759 | -80.42584 | 33961 ft | 492 kts | 172° |
| 2026-05-08 01:06 | 15.04963 | -80.41722 | 33959 ft | 492 kts | 172° |
| 2026-05-08 01:06 | 14.98166 | -80.40859 | 33958 ft | 492 kts | 172° |
| 2026-05-08 01:07 | 14.91369 | -80.39997 | 33956 ft | 492 kts | 172° |
| 2026-05-08 01:07 | 14.84571 | -80.39136 | 33957 ft | 492 kts | 172° |
| 2026-05-08 01:08 | 14.77827 | -80.38282 | 33958 ft | 491 kts | 172° |
| 2026-05-08 01:08 | 14.71038 | -80.37423 | 33953 ft | 491 kts | 172° |
| 2026-05-08 01:09 | 14.64248 | -80.36564 | 33956 ft | 491 kts | 172° |
| 2026-05-08 01:09 | 14.57463 | -80.35706 | 33955 ft | 491 kts | 172° |
| 2026-05-08 01:10 | 14.50675 | -80.34849 | 33953 ft | 491 kts | 172° |
| 2026-05-08 01:10 | 14.43878 | -80.33991 | 33955 ft | 491 kts | 172° |
| 2026-05-08 01:11 | 14.38232 | -80.33279 | 33955 ft | 492 kts | 172° |
| 2026-05-08 01:11 | 14.31440 | -80.32423 | 33955 ft | 492 kts | 172° |
| 2026-05-08 01:12 | 14.24647 | -80.31567 | 33952 ft | 492 kts | 172° |
| 2026-05-08 01:12 | 14.17848 | -80.30710 | 33952 ft | 492 kts | 173° |
| 2026-05-08 01:13 | 14.11055 | -80.29855 | 33950 ft | 492 kts | 173° |
| 2026-05-08 01:13 | 14.04265 | -80.29001 | 33953 ft | 491 kts | 173° |
| 2026-05-08 01:14 | 13.97482 | -80.28148 | 33947 ft | 491 kts | 173° |
| 2026-05-08 01:14 | 13.90745 | -80.27302 | 33944 ft | 491 kts | 173° |
| 2026-05-08 01:15 | 13.83954 | -80.26449 | 33948 ft | 491 kts | 173° |
| 2026-05-08 01:15 | 13.77174 | -80.25598 | 33948 ft | 491 kts | 173° |
| 2026-05-08 01:16 | 13.70387 | -80.24747 | 33942 ft | 491 kts | 173° |
| 2026-05-08 01:16 | 13.63607 | -80.23897 | 33941 ft | 490 kts | 173° |
| 2026-05-08 01:17 | 13.56835 | -80.23049 | 33942 ft | 490 kts | 173° |
| 2026-05-08 01:17 | 13.50056 | -80.22200 | 33943 ft | 490 kts | 173° |
| 2026-05-08 01:18 | 13.43284 | -80.21353 | 33939 ft | 490 kts | 173° |
| 2026-05-08 01:18 | 13.36516 | -80.20507 | 33941 ft | 490 kts | 173° |
| 2026-05-08 01:19 | 13.29759 | -80.19662 | 33940 ft | 489 kts | 173° |
| 2026-05-08 01:19 | 13.23007 | -80.18819 | 33943 ft | 488 kts | 173° |
| 2026-05-08 01:20 | 13.16257 | -80.17976 | 33938 ft | 488 kts | 172° |
| 2026-05-08 01:20 | 13.09514 | -80.17135 | 33939 ft | 487 kts | 172° |
| 2026-05-08 01:21 | 13.02790 | -80.16296 | 33941 ft | 487 kts | 172° |
| 2026-05-08 01:21 | 12.96068 | -80.15458 | 33941 ft | 486 kts | 172° |
| 2026-05-08 01:22 | 12.89354 | -80.14622 | 33944 ft | 486 kts | 172° |
| 2026-05-08 01:22 | 12.82651 | -80.13787 | 33936 ft | 485 kts | 172° |
| 2026-05-08 01:23 | 12.75998 | -80.12959 | 33939 ft | 484 kts | 172° |
| 2026-05-08 01:23 | 12.69312 | -80.12128 | 33938 ft | 484 kts | 172° |
| 2026-05-08 01:24 | 12.62583 | -80.11291 | 33938 ft | 483 kts | 172° |
| 2026-05-08 01:24 | 12.55955 | -80.10467 | 33936 ft | 483 kts | 172° |
| 2026-05-08 01:25 | 12.49278 | -80.09639 | 33933 ft | 482 kts | 172° |
| 2026-05-08 01:25 | 12.42625 | -80.08814 | 33933 ft | 481 kts | 172° |
| 2026-05-08 01:26 | 12.35968 | -80.07987 | 33935 ft | 481 kts | 172° |
| 2026-05-08 01:26 | 12.29364 | -80.07169 | 33931 ft | 481 kts | 171° |
| 2026-05-08 01:27 | 12.22956 | -80.06375 | 33937 ft | 480 kts | 171° |
| 2026-05-08 01:27 | 12.16209 | -80.05539 | 33932 ft | 480 kts | 171° |
| 2026-05-08 01:28 | 12.09569 | -80.04716 | 33934 ft | 480 kts | 171° |
| 2026-05-08 01:28 | 12.02936 | -80.03895 | 33932 ft | 480 kts | 171° |
| 2026-05-08 01:29 | 11.96307 | -80.03076 | 33929 ft | 480 kts | 171° |
| 2026-05-08 01:29 | 11.89673 | -80.02256 | 33932 ft | 480 kts | 171° |
| 2026-05-08 01:30 | 11.83042 | -80.01437 | 33933 ft | 480 kts | 171° |
| 2026-05-08 01:30 | 11.76447 | -80.00622 | 33930 ft | 480 kts | 171° |
| 2026-05-08 01:31 | 11.69819 | -79.99804 | 33929 ft | 480 kts | 171° |
| 2026-05-08 01:31 | 11.63187 | -79.98986 | 33926 ft | 480 kts | 171° |
| 2026-05-08 01:32 | 11.56554 | -79.98168 | 33928 ft | 480 kts | 171° |
| 2026-05-08 01:32 | 11.49931 | -79.97351 | 33933 ft | 480 kts | 171° |
| 2026-05-08 01:33 | 11.43294 | -79.96534 | 33932 ft | 480 kts | 171° |
| 2026-05-08 01:33 | 11.36704 | -79.95722 | 33930 ft | 480 kts | 171° |
| 2026-05-08 01:34 | 11.30077 | -79.94907 | 33928 ft | 480 kts | 171° |
| 2026-05-08 01:34 | 11.23447 | -79.94091 | 33933 ft | 480 kts | 171° |
| 2026-05-08 01:35 | 11.16823 | -79.93276 | 33926 ft | 479 kts | 171° |
| 2026-05-08 01:35 | 11.10197 | -79.92462 | 33930 ft | 479 kts | 171° |
| 2026-05-08 01:36 | 11.03575 | -79.91649 | 33928 ft | 479 kts | 171° |
| 2026-05-08 01:36 | 10.96949 | -79.90835 | 33927 ft | 479 kts | 171° |
| 2026-05-08 01:37 | 10.90330 | -79.90022 | 33928 ft | 480 kts | 171° |
| 2026-05-08 01:37 | 10.83697 | -79.89209 | 33930 ft | 480 kts | 171° |
| 2026-05-08 01:38 | 10.77071 | -79.88396 | 33925 ft | 480 kts | 171° |
| 2026-05-08 01:38 | 10.70441 | -79.87583 | 33930 ft | 480 kts | 171° |
| 2026-05-08 01:39 | 10.63810 | -79.86771 | 33930 ft | 480 kts | 171° |
| 2026-05-08 01:39 | 10.57222 | -79.85964 | 33925 ft | 480 kts | 171° |
| 2026-05-08 01:40 | 10.50587 | -79.85151 | 33926 ft | 480 kts | 171° |
| 2026-05-08 01:40 | 10.43944 | -79.84328 | 33923 ft | 480 kts | 169° |
| 2026-05-08 01:40 | 10.40752 | -79.83414 | 33920 ft | 475 kts | 153° |
| 2026-05-08 01:41 | 10.37864 | -79.81802 | 33941 ft | 474 kts | 148° |
| 2026-05-08 01:41 | 10.32247 | -79.78288 | 33923 ft | 474 kts | 147° |
| 2026-05-08 01:41 | 10.29467 | -79.76539 | 33908 ft | 463 kts | 147° |
| 2026-05-08 01:42 | 10.26770 | -79.74864 | 33908 ft | 445 kts | 147° |
| 2026-05-08 01:42 | 10.24172 | -79.73269 | 33905 ft | 428 kts | 147° |
| 2026-05-08 01:42 | 10.21656 | -79.71734 | 33913 ft | 418 kts | 147° |
| 2026-05-08 01:42 | 10.19154 | -79.70212 | 33564 ft | 421 kts | 147° |
| 2026-05-08 01:43 | 10.16654 | -79.68694 | 33176 ft | 417 kts | 147° |
| 2026-05-08 01:43 | 10.14175 | -79.67189 | 32719 ft | 413 kts | 147° |
| 2026-05-08 01:43 | 10.11716 | -79.65696 | 32251 ft | 410 kts | 147° |
| 2026-05-08 01:43 | 10.09279 | -79.64217 | 31798 ft | 407 kts | 147° |
| 2026-05-08 01:44 | 10.06886 | -79.62765 | 31339 ft | 405 kts | 147° |
| 2026-05-08 01:44 | 10.04474 | -79.61301 | 30884 ft | 403 kts | 147° |
| 2026-05-08 01:44 | 10.02071 | -79.59842 | 30410 ft | 401 kts | 147° |
| 2026-05-08 01:44 | 9.99679 | -79.58391 | 29943 ft | 400 kts | 147° |
| 2026-05-08 01:45 | 9.97295 | -79.56944 | 29428 ft | 398 kts | 146° |
| 2026-05-08 01:45 | 9.94930 | -79.55509 | 28948 ft | 395 kts | 146° |
| 2026-05-08 01:45 | 9.92582 | -79.54085 | 28483 ft | 392 kts | 146° |
| 2026-05-08 01:45 | 9.90247 | -79.52669 | 28030 ft | 389 kts | 146° |
| 2026-05-08 01:46 | 9.87932 | -79.51266 | 27589 ft | 386 kts | 146° |
| 2026-05-08 01:46 | 9.85619 | -79.49898 | 27111 ft | 385 kts | 149° |
| 2026-05-08 01:46 | 9.83190 | -79.48701 | 26499 ft | 390 kts | 153° |
| 2026-05-08 01:46 | 9.80701 | -79.47602 | 26011 ft | 389 kts | 153° |
| 2026-05-08 01:47 | 9.78216 | -79.46531 | 25581 ft | 387 kts | 153° |
| 2026-05-08 01:47 | 9.75746 | -79.45457 | 25118 ft | 386 kts | 153° |
| 2026-05-08 01:47 | 9.73293 | -79.44372 | 24683 ft | 384 kts | 152° |
| 2026-05-08 01:48 | 9.68448 | -79.42195 | 23817 ft | 381 kts | 152° |
| 2026-05-08 01:48 | 9.66033 | -79.41102 | 23364 ft | 380 kts | 152° |
| 2026-05-08 01:48 | 9.63622 | -79.40011 | 22886 ft | 378 kts | 152° |
| 2026-05-08 01:48 | 9.61228 | -79.38928 | 22443 ft | 375 kts | 152° |
| 2026-05-08 01:49 | 9.58857 | -79.37856 | 22019 ft | 372 kts | 152° |
| 2026-05-08 01:49 | 9.56554 | -79.36700 | 21587 ft | 366 kts | 144° |
| 2026-05-08 01:49 | 9.54482 | -79.35240 | 21179 ft | 361 kts | 140° |
| 2026-05-08 01:49 | 9.52493 | -79.33715 | 20955 ft | 352 kts | 139° |
| 2026-05-08 01:50 | 9.50587 | -79.32236 | 20921 ft | 338 kts | 139° |
| 2026-05-08 01:50 | 9.48753 | -79.30826 | 20911 ft | 324 kts | 139° |
| 2026-05-08 01:50 | 9.46990 | -79.29486 | 20907 ft | 310 kts | 139° |
| 2026-05-08 01:50 | 9.45295 | -79.28208 | 20893 ft | 296 kts | 139° |
| 2026-05-08 01:51 | 9.43668 | -79.26987 | 20914 ft | 287 kts | 139° |
| 2026-05-08 01:51 | 9.42061 | -79.25782 | 20915 ft | 287 kts | 139° |
| 2026-05-08 01:51 | 9.40452 | -79.24577 | 20927 ft | 289 kts | 139° |
| 2026-05-08 01:51 | 9.38829 | -79.23363 | 20936 ft | 291 kts | 140° |
| 2026-05-08 01:52 | 9.37215 | -79.22157 | 20929 ft | 293 kts | 140° |
| 2026-05-08 01:52 | 9.35565 | -79.20927 | 20920 ft | 295 kts | 140° |
| 2026-05-08 01:52 | 9.33912 | -79.19695 | 20924 ft | 295 kts | 140° |
| 2026-05-08 01:52 | 9.32251 | -79.18457 | 20919 ft | 296 kts | 140° |
| 2026-05-08 01:53 | 9.30596 | -79.17224 | 20910 ft | 295 kts | 140° |
| 2026-05-08 01:53 | 9.28943 | -79.15994 | 20916 ft | 294 kts | 140° |
| 2026-05-08 01:53 | 9.27162 | -79.14974 | 20890 ft | 299 kts | 161° |
| 2026-05-08 01:53 | 9.25089 | -79.14786 | 20904 ft | 304 kts | 186° |
| 2026-05-08 01:54 | 9.23081 | -79.15477 | 20904 ft | 308 kts | 207° |
| 2026-05-08 01:54 | 9.21257 | -79.16632 | 20901 ft | 309 kts | 211° |
| 2026-05-08 01:54 | 9.19482 | -79.17849 | 20907 ft | 308 kts | 212° |
| 2026-05-08 01:54 | 9.17706 | -79.19079 | 20907 ft | 310 kts | 212° |
| 2026-05-08 01:55 | 9.15921 | -79.20306 | 20900 ft | 311 kts | 211° |
| 2026-05-08 01:55 | 9.14121 | -79.21530 | 20902 ft | 312 kts | 211° |
| 2026-05-08 01:55 | 9.12918 | -79.22343 | 20902 ft | 313 kts | 211° |
| 2026-05-08 01:55 | 9.11098 | -79.23568 | 20900 ft | 315 kts | 211° |
| 2026-05-08 01:56 | 9.09266 | -79.24797 | 20895 ft | 316 kts | 211° |
| 2026-05-08 01:56 | 9.07427 | -79.26029 | 20895 ft | 317 kts | 211° |
| 2026-05-08 01:56 | 9.05573 | -79.27268 | 20644 ft | 323 kts | 211° |
| 2026-05-08 01:56 | 9.03697 | -79.28523 | 20291 ft | 323 kts | 211° |
| 2026-05-08 01:57 | 9.01820 | -79.29771 | 19948 ft | 322 kts | 212° |
| 2026-05-08 01:57 | 9.00187 | -79.31325 | 19570 ft | 325 kts | 234° |
| 2026-05-08 01:57 | 8.99251 | -79.33391 | 19229 ft | 325 kts | 259° |
| 2026-05-08 01:57 | 8.99233 | -79.35647 | 18902 ft | 321 kts | 285° |
| 2026-05-08 01:58 | 9.00121 | -79.37671 | 18569 ft | 314 kts | 310° |
| 2026-05-08 01:58 | 9.01704 | -79.39139 | 18237 ft | 307 kts | 333° |
| 2026-05-08 01:58 | 9.03652 | -79.39926 | 17878 ft | 299 kts | 354° |
| 2026-05-08 01:58 | 9.05709 | -79.40109 | 17518 ft | 296 kts | 356° |
| 2026-05-08 01:59 | 9.07641 | -79.40840 | 17090 ft | 304 kts | 323° |
| 2026-05-08 01:59 | 9.08907 | -79.42533 | 16736 ft | 307 kts | 290° |
| 2026-05-08 01:59 | 9.09107 | -79.44659 | 16359 ft | 307 kts | 256° |
| 2026-05-08 01:59 | 9.08182 | -79.46549 | 15997 ft | 300 kts | 222° |
| 2026-05-08 02:00 | 9.06459 | -79.47607 | 15634 ft | 287 kts | 187° |
| 2026-05-08 02:00 | 9.04545 | -79.47522 | 15279 ft | 272 kts | 153° |
| 2026-05-08 02:00 | 9.02970 | -79.46543 | 14982 ft | 264 kts | 140° |
| 2026-05-08 02:00 | 9.01473 | -79.45464 | 14625 ft | 263 kts | 141° |
| 2026-05-08 02:01 | 8.99968 | -79.44478 | 14307 ft | 252 kts | 144° |
| 2026-05-08 02:01 | 8.98467 | -79.43581 | 13981 ft | 248 kts | 145° |
| 2026-05-08 02:01 | 8.97011 | -79.42731 | 13663 ft | 241 kts | 145° |
| 2026-05-08 02:01 | 8.95524 | -79.41954 | 13281 ft | 238 kts | 159° |
| 2026-05-08 02:02 | 8.93872 | -79.41946 | 12703 ft | 250 kts | 192° |
| 2026-05-08 02:02 | 8.92323 | -79.42781 | 12062 ft | 258 kts | 219° |
| 2026-05-08 02:02 | 8.91220 | -79.44224 | 11420 ft | 263 kts | 248° |
| 2026-05-08 02:02 | 8.90921 | -79.46031 | 10839 ft | 263 kts | 278° |
| 2026-05-08 02:03 | 8.91510 | -79.47744 | 10293 ft | 257 kts | 307° |
| 2026-05-08 02:03 | 8.92799 | -79.48928 | 9751 ft | 249 kts | 335° |
| 2026-05-08 02:03 | 8.94438 | -79.49342 | 9164 ft | 241 kts | 2° |
| 2026-05-08 02:03 | 8.96019 | -79.48967 | 8610 ft | 229 kts | 27° |
| 2026-05-08 02:04 | 8.97230 | -79.47982 | 7925 ft | 222 kts | 51° |
| 2026-05-08 02:04 | 8.97870 | -79.46521 | 6561 ft | 239 kts | 78° |
| 2026-05-08 02:04 | 8.97867 | -79.44892 | 6090 ft | 219 kts | 98° |
| 2026-05-08 02:04 | 8.97364 | -79.43517 | 5684 ft | 203 kts | 120° |
| 2026-05-08 02:05 | 8.96404 | -79.42493 | 5115 ft | 200 kts | 143° |
| 2026-05-08 02:05 | 8.95154 | -79.41933 | 4587 ft | 197 kts | 169° |
| 2026-05-08 02:05 | 8.93819 | -79.42176 | 3660 ft | 208 kts | 219° |
| 2026-05-08 02:05 | 8.93088 | -79.43365 | 3155 ft | 193 kts | 260° |
| 2026-05-08 02:06 | 8.93165 | -79.44608 | 2874 ft | 166 kts | 297° |
| 2026-05-08 02:06 | 8.93856 | -79.45449 | 2475 ft | 152 kts | 328° |
| 2026-05-08 02:06 | 8.94802 | -79.45709 | 2108 ft | 136 kts | 12° |
| 2026-05-08 02:06 | 8.95575 | -79.45268 | 1815 ft | 125 kts | 36° |
| 2026-05-08 02:07 | 8.96327 | -79.44660 | 1720 ft | 156 kts | 37° |
| 2026-05-08 02:07 | 8.97194 | -79.43947 | 1723 ft | 164 kts | 35° |
| 2026-05-08 02:07 | 8.98111 | -79.43267 | 1566 ft | 160 kts | 33° |
| 2026-05-08 02:07 | 8.99020 | -79.42649 | 1364 ft | 154 kts | 30° |
| 2026-05-08 02:08 | 8.99920 | -79.42096 | 1179 ft | 149 kts | 30° |
| 2026-05-08 02:08 | 9.00797 | -79.41565 | 1041 ft | 148 kts | 26° |
| 2026-05-08 02:08 | 9.01713 | -79.41057 | 824 ft | 150 kts | 28° |
| 2026-05-08 02:08 | 9.02592 | -79.40512 | 639 ft | 147 kts | 31° |
| 2026-05-08 02:09 | 9.03488 | -79.40013 | 422 ft | 147 kts | 25° |
| 2026-05-08 02:09 | 9.04347 | -79.39501 | 237 ft | 136 kts | 28° |
| 2026-05-08 02:09 | 9.05133 | -79.39052 | 56 ft | 120 kts | 28° |
| 2026-05-08 02:09 | 9.05746 | -79.38703 | 45 ft | 73 kts | 29° |
| 2026-05-08 02:10 | 9.06006 | -79.38554 | 45 ft | 24 kts | 29° |